Airfield :
LOGIN :

Register | Disclaimer

   EN    FR    IT 

 










Legend :    VFR   Marginal VFR   IFR   Intensive IFR   Very Intensive IFR
Visi :
Ceiling :
>= 8 km
>= 3000ft
5 to 8 km
1000 to 3000 ft
1500m to 5 km
500 to 1000 ft
800 to 1500m
200 to 500 ft
< 800m
< 200 ft
Symbols :   Thunderstorms  Fog  Heavy snow  Heavy precipitations  Wind > 20 kt
SIGMETs :     Misc.  Thunderstorms  Icing  Turbulence  Mountain Waves  Volcanic Ashes






- Airport Elevation : 699 ft
- IATA code : PAD


EDLP - Paderborn Lippstadt

CURRENT METAR :
  • 280050Z 25012KT CAVOK 09/04 Q1019

EXPIRED METARs :
  • 280020Z 25009KT 220V290 9999 FEW037 09/03 Q1019
  • 272350Z 25010KT 220V290 9999 FEW036 BKN045 09/03 Q1020
  • 272320Z 25009KT 220V280 9999 FEW039 09/03 Q1020
  • 272250Z 25009KT 220V280 9999 FEW038 09/03 Q1020

TAF TAF EDLP
Valid from the 28 at 00:00 until the 29 at 00:00 UTC


272300Z 2800/2824 28009KT 9999 SCT040
PROB30
TEMPO 2802/2805 SHRA BKN010TCU
PROB30
TEMPO 2812/2817 30015G25KT SHRA BKN020TCU
BECMG 2817/2819 28004KT



MET'MAP, your aeronautical weather chart ! - Copyright ORBIFLY December 2007 - Disclaimer

ORBIFLY MET'MAP TEAM :

Programming & Development : Alexandra Zaïnal
Original concept : Baudouin d'Aumeries
Technical & hardware support : Manuel Goepfert
Assistance : Marc-Olivier Méhu

Contact : metmap@orbifly.com




SOURCES & CREDITS :

   NOAA